Time;durP1;ratioP1;P1;durP2;ratioP2;P2;SDS_P1;SDS_P2;PMS_P1;PMS_P2;Temp;Humidity;BMP_temperature;BMP_pressure;BME280_temperature;BME280_humidity;BME280_pressure;Samples;Min_cycle;Max_cycle;Signal;HPM_P1;HPM_P2
2023/01/01 00:01:56;;;;;;;5.75;2.17;;;14.70;1.00;;;;;;5065844;28;20267;-79
2023/01/01 00:04:22;;;;;;;6.95;2.00;;;14.70;1.00;;;;;;5064359;28;20235;-80
2023/01/01 00:06:47;;;;;;;6.35;2.70;;;14.70;1.00;;;;;;5064736;28;20185;-78
2023/01/01 00:11:57;;;;;;;6.63;2.13;;;14.60;1.00;;;;;;5065115;28;20605;-80
2023/01/01 00:14:23;;;;;;;4.85;2.00;;;14.70;1.00;;;;;;5063741;28;20280;-81
2023/01/01 00:16:49;;;;;;;5.80;2.40;;;14.80;1.00;;;;;;5059467;28;20203;-80
2023/01/01 00:19:14;;;;;;;2.83;1.77;;;14.80;1.00;;;;;;5064331;28;20312;-80
2023/01/01 00:21:40;;;;;;;6.95;2.60;;;14.80;1.00;;;;;;5064373;28;20295;-78
2023/01/01 00:24:06;;;;;;;4.88;2.30;;;14.70;1.00;;;;;;5064401;28;20192;-79
2023/01/01 00:26:32;;;;;;;5.85;2.40;;;14.60;1.00;;;;;;5063662;28;20198;-80
2023/01/01 00:28:57;;;;;;;5.38;2.38;;;14.60;1.00;;;;;;5064439;28;20205;-78
2023/01/01 00:31:23;;;;;;;6.63;2.33;;;14.90;1.00;;;;;;5064755;28;20195;-80
2023/01/01 00:33:53;;;;;;;6.32;2.25;;;14.90;1.00;;;;;;5064450;28;20254;-79
2023/01/01 00:36:21;;;;;;;7.05;2.72;;;14.90;1.00;;;;;;5063888;28;20254;-80
2023/01/01 00:38:46;;;;;;;6.85;2.60;;;14.80;1.00;;;;;;5066013;28;20193;-80
2023/01/01 00:41:13;;;;;;;4.00;2.13;;;14.90;1.00;;;;;;5065267;28;20181;-79
2023/01/01 00:43:39;;;;;;;5.78;2.53;;;14.90;1.00;;;;;;5066057;28;20183;-78
2023/01/01 00:46:06;;;;;;;5.15;2.38;;;14.80;1.00;;;;;;5063512;28;20201;-78
2023/01/01 00:48:32;;;;;;;8.18;2.88;;;14.90;1.00;;;;;;5066146;28;20201;-80
2023/01/01 00:50:58;;;;;;;7.65;2.50;;;15.10;1.00;;;;;;5064168;28;20864;-78
2023/01/01 00:53:23;;;;;;;5.80;2.35;;;15.00;1.00;;;;;;5065210;28;20189;-80
2023/01/01 00:55:50;;;;;;;5.25;2.47;;;14.90;1.00;;;;;;5065580;28;21315;-78
2023/01/01 00:58:17;;;;;;;3.83;2.40;;;15.00;1.00;;;;;;5064925;28;20186;-78
2023/01/01 01:00:43;;;;;;;5.10;2.75;;;15.10;1.00;;;;;;5064394;28;20180;-79
2023/01/01 01:03:29;;;;;;;5.68;2.53;;;15.00;1.00;;;;;;5064747;28;20193;-79
2023/01/01 01:06:07;;;;;;;5.75;2.25;;;15.00;1.00;;;;;;5065250;28;20170;-79
2023/01/01 01:08:34;;;;;;;6.32;2.08;;;15.00;1.00;;;;;;5068590;28;20199;-78
2023/01/01 01:11:05;;;;;;;5.78;2.50;;;15.10;1.00;;;;;;5069352;28;20185;-80
2023/01/01 01:13:31;;;;;;;4.22;2.20;;;15.10;1.00;;;;;;5069434;28;20251;-78
2023/01/01 01:15:57;;;;;;;8.35;2.58;;;15.00;1.00;;;;;;5067798;28;20189;-81
2023/01/01 01:18:22;;;;;;;6.13;2.42;;;15.00;1.00;;;;;;5069757;28;20201;-78
2023/01/01 01:20:52;;;;;;;7.45;2.63;;;15.20;1.00;;;;;;5069089;28;20174;-78
2023/01/01 01:23:19;;;;;;;5.78;2.45;;;15.10;1.00;;;;;;5069861;28;20822;-78
2023/01/01 01:25:46;;;;;;;7.03;3.05;;;15.10;1.00;;;;;;5067580;28;20185;-80
2023/01/01 01:28:11;;;;;;;4.15;2.47;;;15.00;1.00;;;;;;5069340;28;20268;-79
2023/01/01 01:30:38;;;;;;;6.60;3.58;;;15.20;1.00;;;;;;5069486;28;20248;-78
2023/01/01 01:33:04;;;;;;;7.72;2.97;;;15.10;1.00;;;;;;5068487;28;20231;-79
2023/01/01 01:35:29;;;;;;;4.57;2.53;;;15.20;1.00;;;;;;5068561;28;20266;-80
2023/01/01 01:37:55;;;;;;;8.50;3.22;;;15.20;1.00;;;;;;5068107;28;20170;-78
2023/01/01 01:40:21;;;;;;;5.95;2.78;;;15.20;1.00;;;;;;5062573;28;20205;-79
2023/01/01 01:42:49;;;;;;;6.75;2.78;;;15.20;1.00;;;;;;5064279;28;20186;-80
2023/01/01 01:45:16;;;;;;;8.65;3.15;;;15.10;1.00;;;;;;5067500;28;20197;-78
2023/01/01 01:47:49;;;;;;;6.32;2.80;;;15.00;1.00;;;;;;5068222;28;20699;-78
2023/01/01 01:50:27;;;;;;;5.75;2.92;;;15.10;1.00;;;;;;5069126;28;20209;-79
2023/01/01 01:53:11;;;;;;;7.15;3.20;;;15.20;1.00;;;;;;5068847;28;20211;-79
2023/01/01 01:55:42;;;;;;;9.18;3.45;;;15.10;1.00;;;;;;5067334;28;20177;-78
2023/01/01 01:58:10;;;;;;;5.72;3.03;;;15.10;1.00;;;;;;5067951;28;20180;-79
2023/01/01 02:00:36;;;;;;;8.80;3.55;;;15.20;1.00;;;;;;5067368;28;20173;-78
2023/01/01 02:03:18;;;;;;;7.28;3.40;;;15.10;1.00;;;;;;5068615;28;20192;-80
2023/01/01 02:05:45;;;;;;;7.75;3.30;;;15.10;1.00;;;;;;5066530;28;20178;-80
2023/01/01 02:08:13;;;;;;;6.63;3.60;;;15.00;1.00;;;;;;5068347;28;20186;-79
2023/01/01 02:10:39;;;;;;;7.32;3.95;;;15.10;1.00;;;;;;5068201;28;20170;-80
2023/01/01 02:13:05;;;;;;;6.53;3.35;;;15.10;1.00;;;;;;5069153;28;20194;-79
2023/01/01 02:15:38;;;;;;;7.85;3.42;;;15.10;1.00;;;;;;5067586;28;20682;-80
2023/01/01 02:18:14;;;;;;;7.35;3.67;;;15.10;1.00;;;;;;5066827;28;20559;-80
2023/01/01 02:20:48;;;;;;;5.75;3.05;;;15.10;1.00;;;;;;5067406;28;20173;-79
2023/01/01 02:23:41;;;;;;;7.35;3.15;;;15.10;1.00;;;;;;5059306;28;20185;-78
2023/01/01 02:26:13;;;;;;;8.95;3.35;;;15.10;1.00;;;;;;5067250;28;20651;-79
2023/01/01 02:28:48;;;;;;;7.57;3.33;;;15.20;1.00;;;;;;5067285;28;20208;-79
2023/01/01 02:31:18;;;;;;;7.25;3.33;;;15.20;1.00;;;;;;5067433;28;20799;-79
2023/01/01 02:33:45;;;;;;;7.45;3.30;;;15.20;1.00;;;;;;5068175;28;20216;-79
2023/01/01 02:36:13;;;;;;;7.90;3.53;;;15.20;1.00;;;;;;5067656;28;20181;-79
2023/01/01 02:38:44;;;;;;;6.85;2.90;;;15.20;1.00;;;;;;5067598;28;20204;-79
2023/01/01 02:41:12;;;;;;;6.47;2.83;;;15.10;1.00;;;;;;5067681;28;20647;-79
2023/01/01 02:43:39;;;;;;;8.60;3.35;;;15.10;1.00;;;;;;5065968;28;20199;-79
2023/01/01 02:46:07;;;;;;;8.07;2.90;;;15.00;1.00;;;;;;5067704;28;20223;-79
2023/01/01 02:48:35;;;;;;;7.97;3.22;;;15.00;1.00;;;;;;5066058;28;20198;-78
2023/01/01 02:51:10;;;;;;;6.50;2.85;;;15.10;1.00;;;;;;5065595;28;20205;-78
2023/01/01 02:53:40;;;;;;;6.97;3.38;;;15.10;1.00;;;;;;5057714;28;20212;-79
2023/01/01 02:56:20;;;;;;;6.38;3.13;;;14.90;1.00;;;;;;5067144;28;20551;-80
2023/01/01 03:02:16;;;;;;;8.38;3.28;;;14.80;1.00;;;;;;5067100;28;20211;-79
2023/01/01 03:04:44;;;;;;;8.77;3.00;;;14.70;1.00;;;;;;5065222;28;20181;-79
2023/01/01 03:07:22;;;;;;;8.30;3.25;;;14.70;1.00;;;;;;5066673;28;20185;-79
2023/01/01 03:10:41;;;;;;;7.40;3.00;;;14.60;1.00;;;;;;5059072;28;20198;-79
2023/01/01 03:13:25;;;;;;;7.75;3.00;;;14.50;1.00;;;;;;4997908;28;20184;-79
2023/01/01 03:15:58;;;;;;;5.47;2.97;;;14.50;1.00;;;;;;5066707;28;20169;-79
2023/01/01 03:18:34;;;;;;;5.88;3.05;;;14.50;1.00;;;;;;5066801;28;20235;-79
2023/01/01 03:21:03;;;;;;;4.45;2.70;;;14.50;1.00;;;;;;5066978;28;21349;-79
2023/01/01 03:23:35;;;;;;;8.50;3.35;;;14.50;1.00;;;;;;5066585;28;20218;-80
2023/01/01 03:26:06;;;;;;;6.05;3.05;;;14.50;1.00;;;;;;5066314;28;20230;-80
2023/01/01 03:28:37;;;;;;;4.72;2.97;;;14.50;1.00;;;;;;5065018;28;20197;-79
2023/01/01 03:31:03;;;;;;;4.82;3.00;;;14.50;1.00;;;;;;5064578;28;20268;-79
2023/01/01 03:33:52;;;;;;;4.00;2.75;;;14.40;1.00;;;;;;5066277;28;20241;-80
2023/01/01 03:36:23;;;;;;;6.22;3.30;;;14.40;1.00;;;;;;5064518;28;20235;-79
2023/01/01 03:38:54;;;;;;;7.50;3.58;;;14.30;1.00;;;;;;5056534;28;20683;-79
2023/01/01 03:41:33;;;;;;;7.00;3.50;;;14.30;1.00;;;;;;5064609;28;20177;-79
2023/01/01 03:44:17;;;;;;;7.60;3.30;;;14.40;1.00;;;;;;5068304;28;20181;-80
2023/01/01 03:46:43;;;;;;;6.10;2.85;;;14.50;1.00;;;;;;5073054;28;20187;-80
2023/01/01 03:49:11;;;;;;;5.88;3.00;;;14.40;1.00;;;;;;5072524;28;20213;-79
2023/01/01 03:51:58;;;;;;;4.68;2.88;;;14.50;1.00;;;;;;5073361;28;20201;-80
2023/01/01 03:54:56;;;;;;;6.85;2.65;;;14.50;1.00;;;;;;5070918;28;20280;-79
2023/01/01 03:57:34;;;;;;;5.60;3.00;;;14.30;1.00;;;;;;5058395;28;20181;-79
2023/01/01 04:00:18;;;;;;;6.65;2.90;;;14.30;1.00;;;;;;5069897;28;20197;-81
2023/01/01 04:02:47;;;;;;;5.13;2.97;;;14.20;1.00;;;;;;5068914;28;20318;-82
2023/01/01 04:05:14;;;;;;;4.85;2.75;;;14.20;1.00;;;;;;5067229;28;20229;-80
2023/01/01 04:07:39;;;;;;;5.75;2.97;;;14.10;1.00;;;;;;5067548;28;20329;-80
2023/01/01 04:10:16;;;;;;;5.65;2.90;;;14.00;1.00;;;;;;5063469;28;20758;-81
2023/01/01 04:12:55;;;;;;;5.05;2.53;;;14.20;1.00;;;;;;5069098;28;20169;-79
2023/01/01 04:15:24;;;;;;;5.18;3.05;;;14.20;1.00;;;;;;5068916;28;20305;-80
2023/01/01 04:17:51;;;;;;;5.43;3.20;;;14.20;1.00;;;;;;5067307;28;20174;-82
2023/01/01 04:20:17;;;;;;;5.50;3.08;;;14.20;1.00;;;;;;5065978;28;20205;-79
2023/01/01 04:22:43;;;;;;;5.43;3.13;;;14.10;1.00;;;;;;5066615;28;20209;-78
2023/01/01 04:25:10;;;;;;;6.90;3.00;;;14.10;1.00;;;;;;5066609;28;20268;-82
2023/01/01 04:27:36;;;;;;;5.47;3.47;;;14.10;1.00;;;;;;5055754;28;20188;-81
2023/01/01 04:30:06;;;;;;;6.43;3.25;;;14.10;1.00;;;;;;5062319;28;20216;-79
2023/01/01 04:32:33;;;;;;;5.68;2.90;;;14.20;1.00;;;;;;5066239;28;20186;-80
2023/01/01 04:34:58;;;;;;;4.80;3.05;;;14.10;1.00;;;;;;5066631;28;20212;-82
2023/01/01 04:37:24;;;;;;;5.68;3.20;;;14.00;1.00;;;;;;5068182;28;20184;-82
2023/01/01 04:39:50;;;;;;;5.72;3.47;;;14.00;1.00;;;;;;5069057;28;20533;-80
2023/01/01 04:42:16;;;;;;;7.28;3.50;;;14.00;1.00;;;;;;5068845;28;20189;-80
2023/01/01 04:44:42;;;;;;;6.82;3.50;;;14.00;1.00;;;;;;5063345;28;20196;-82
2023/01/01 04:47:07;;;;;;;6.60;3.70;;;14.10;1.00;;;;;;5070890;28;20675;-82
2023/01/01 04:49:33;;;;;;;5.30;3.15;;;14.00;1.00;;;;;;5071284;28;20556;-80
2023/01/01 04:51:58;;;;;;;7.28;3.65;;;14.10;1.00;;;;;;5070180;28;20205;-81
2023/01/01 04:54:24;;;;;;;4.10;3.40;;;13.90;1.00;;;;;;5070093;28;20240;-79
2023/01/01 04:56:50;;;;;;;8.48;4.30;;;13.90;1.00;;;;;;5069867;28;20181;-83
2023/01/01 04:59:15;;;;;;;6.63;3.58;;;13.70;1.00;;;;;;5072432;28;20729;-81
2023/01/01 05:01:41;;;;;;;3.30;2.85;;;13.80;1.00;;;;;;5069635;28;20551;-83
2023/01/01 05:04:06;;;;;;;6.13;3.70;;;13.90;1.00;;;;;;5070893;28;20197;-79
2023/01/01 05:06:32;;;;;;;8.85;3.70;;;13.90;1.00;;;;;;5069893;28;20204;-83
2023/01/01 05:08:58;;;;;;;7.45;3.47;;;13.90;1.00;;;;;;5071485;28;20662;-81
2023/01/01 05:11:27;;;;;;;4.47;3.70;;;13.90;1.00;;;;;;5071146;28;20182;-79
2023/01/01 05:13:54;;;;;;;4.55;3.47;;;13.80;1.00;;;;;;5071199;28;20212;-83
2023/01/01 05:16:23;;;;;;;5.60;4.00;;;13.80;1.00;;;;;;5070298;28;20578;-80
2023/01/01 05:18:49;;;;;;;4.95;3.50;;;13.70;1.00;;;;;;5070584;28;20197;-80
2023/01/01 05:21:21;;;;;;;6.25;3.78;;;13.80;1.00;;;;;;5070285;28;20177;-81
2023/01/01 05:23:46;;;;;;;6.90;4.03;;;13.80;1.00;;;;;;5072279;28;20647;-82
2023/01/01 05:26:17;;;;;;;7.38;3.65;;;13.80;1.00;;;;;;5069986;28;20247;-83
2023/01/01 05:28:44;;;;;;;7.45;4.28;;;13.80;1.00;;;;;;5070658;28;20201;-82
2023/01/01 05:31:15;;;;;;;6.05;4.00;;;13.70;1.00;;;;;;5070839;28;20213;-80
2023/01/01 05:33:41;;;;;;;5.28;3.65;;;13.60;1.00;;;;;;5069517;28;20284;-81
2023/01/01 05:36:08;;;;;;;4.95;3.63;;;13.60;1.00;;;;;;5068657;28;20239;-81
2023/01/01 05:38:35;;;;;;;9.25;4.20;;;13.60;1.00;;;;;;5069828;28;20673;-81
2023/01/01 05:41:08;;;;;;;7.82;3.58;;;13.70;1.00;;;;;;5069448;28;20206;-82
2023/01/01 05:43:34;;;;;;;6.97;3.75;;;13.60;1.00;;;;;;5068916;28;20215;-79
2023/01/01 05:46:05;;;;;;;6.00;3.83;;;13.70;1.00;;;;;;5068936;28;20633;-81
2023/01/01 05:48:33;;;;;;;5.57;3.85;;;13.70;1.00;;;;;;5069588;28;20568;-80
2023/01/01 05:51:08;;;;;;;5.10;3.67;;;13.90;1.00;;;;;;5068848;28;20207;-81
2023/01/01 05:53:34;;;;;;;8.07;3.65;;;13.90;1.00;;;;;;5068562;28;20207;-83
2023/01/01 05:56:00;;;;;;;6.47;3.80;;;13.90;1.00;;;;;;5070796;28;20576;-80
2023/01/01 05:58:27;;;;;;;6.53;3.85;;;13.90;1.00;;;;;;5069924;28;20197;-79
2023/01/01 06:00:53;;;;;;;4.93;3.60;;;13.90;1.00;;;;;;5069760;28;20188;-81
2023/01/01 06:03:18;;;;;;;6.05;4.05;;;13.90;1.00;;;;;;5070631;28;20185;-79
2023/01/01 06:05:44;;;;;;;6.22;3.70;;;14.00;1.00;;;;;;5068623;28;20182;-83
2023/01/01 06:08:10;;;;;;;5.95;3.58;;;13.90;1.00;;;;;;5068770;28;20714;-81
2023/01/01 06:10:35;;;;;;;6.70;3.80;;;13.90;1.00;;;;;;5069897;28;20235;-79
2023/01/01 06:13:01;;;;;;;6.25;3.63;;;13.90;1.00;;;;;;5070443;28;20181;-79
2023/01/01 06:15:27;;;;;;;6.18;4.10;;;13.90;1.00;;;;;;5068575;28;20213;-83
2023/01/01 06:17:53;;;;;;;5.60;3.92;;;13.80;1.00;;;;;;5069424;28;20190;-83
2023/01/01 06:20:19;;;;;;;6.88;3.45;;;13.80;1.00;;;;;;5071136;28;20201;-83
2023/01/01 06:22:44;;;;;;;5.97;3.95;;;13.80;1.00;;;;;;5066863;28;20197;-79
2023/01/01 06:25:10;;;;;;;5.07;3.58;;;13.90;1.00;;;;;;5067058;28;20200;-81
2023/01/01 06:27:36;;;;;;;5.50;3.80;;;13.90;1.00;;;;;;5068041;28;20764;-80
2023/01/01 06:30:04;;;;;;;5.97;3.97;;;13.80;1.00;;;;;;5068692;28;20208;-79
2023/01/01 06:32:29;;;;;;;7.05;4.45;;;13.80;1.00;;;;;;5069079;28;20821;-83
2023/01/01 06:34:55;;;;;;;5.35;3.70;;;13.80;1.00;;;;;;5067414;28;20216;-82
2023/01/01 06:37:20;;;;;;;4.68;3.47;;;13.80;1.00;;;;;;5067379;28;20190;-80
2023/01/01 06:39:46;;;;;;;7.35;3.53;;;13.80;1.00;;;;;;5068928;28;20197;-81
2023/01/01 06:42:11;;;;;;;6.47;3.85;;;13.80;1.00;;;;;;5067696;28;20269;-80
2023/01/01 06:44:37;;;;;;;7.85;3.90;;;13.80;1.00;;;;;;5068669;28;20239;-80
2023/01/01 06:47:03;;;;;;;4.80;3.90;;;13.90;1.00;;;;;;5067973;28;20209;-81
2023/01/01 06:49:28;;;;;;;4.82;3.60;;;13.90;1.00;;;;;;5067579;28;20241;-80
2023/01/01 06:51:54;;;;;;;5.97;3.53;;;13.90;1.00;;;;;;5070641;28;20284;-78
2023/01/01 06:54:20;;;;;;;6.13;3.10;;;13.90;1.00;;;;;;5069727;28;21260;-81
2023/01/01 06:56:45;;;;;;;5.05;3.88;;;13.90;1.00;;;;;;5066934;28;20175;-81
2023/01/01 06:59:11;;;;;;;5.80;3.17;;;13.90;1.00;;;;;;5067547;28;20200;-79
2023/01/01 07:01:40;;;;;;;5.30;3.75;;;13.80;1.00;;;;;;5065237;28;20187;-78
2023/01/01 07:04:10;;;;;;;6.38;3.78;;;13.80;1.00;;;;;;5065514;28;20184;-78
2023/01/01 07:06:35;;;;;;;5.35;4.07;;;13.70;1.00;;;;;;5064698;28;20198;-78
2023/01/01 07:09:01;;;;;;;5.95;3.63;;;13.70;1.00;;;;;;5067000;28;20236;-79
2023/01/01 07:11:27;;;;;;;4.85;3.20;;;13.80;1.00;;;;;;5066335;28;20212;-80
2023/01/01 07:13:53;;;;;;;5.57;3.53;;;13.80;1.00;;;;;;5066966;28;20217;-80
2023/01/01 07:16:19;;;;;;;7.40;4.00;;;13.70;1.00;;;;;;5069592;28;20185;-80
2023/01/01 07:18:45;;;;;;;5.13;3.20;;;13.80;1.00;;;;;;5069020;28;20197;-80
2023/01/01 07:21:43;;;;;;;6.18;3.67;;;13.80;1.00;;;;;;5065644;28;20655;-79
2023/01/01 07:24:11;;;;;;;5.63;3.63;;;13.70;1.00;;;;;;5061474;28;20197;-80
2023/01/01 07:26:37;;;;;;;5.43;3.60;;;13.60;1.00;;;;;;5069490;28;20282;-78
2023/01/01 07:29:02;;;;;;;5.28;3.65;;;13.70;1.00;;;;;;5069304;28;20738;-79
2023/01/01 07:31:28;;;;;;;4.55;3.72;;;13.70;1.00;;;;;;5067449;28;20198;-82
2023/01/01 07:33:53;;;;;;;7.75;4.18;;;13.70;1.00;;;;;;5069261;28;20225;-84
2023/01/01 07:36:19;;;;;;;6.28;3.90;;;13.70;1.00;;;;;;5067947;28;20214;-79
2023/01/01 07:38:44;;;;;;;5.75;4.15;;;13.70;1.00;;;;;;5069194;28;20339;-80
2023/01/01 07:41:10;;;;;;;8.70;3.85;;;13.70;1.00;;;;;;5066691;28;20214;-80
2023/01/01 07:43:36;;;;;;;5.07;3.78;;;13.70;1.00;;;;;;5068269;28;20173;-80
2023/01/01 07:46:01;;;;;;;8.25;3.90;;;13.70;1.00;;;;;;5066934;28;20193;-80
2023/01/01 07:48:27;;;;;;;5.40;3.55;;;13.70;1.00;;;;;;5068994;28;20265;-81
2023/01/01 07:50:53;;;;;;;8.90;4.13;;;13.60;1.00;;;;;;5068847;28;20774;-81
2023/01/01 07:53:18;;;;;;;4.10;3.50;;;13.70;1.00;;;;;;5065310;28;20651;-78
2023/01/01 07:55:44;;;;;;;6.35;3.70;;;13.70;1.00;;;;;;5063684;28;20579;-80
2023/01/01 07:58:11;;;;;;;5.53;3.92;;;13.60;1.00;;;;;;5068381;28;20604;-80
2023/01/01 08:00:37;;;;;;;6.85;4.05;;;13.60;1.00;;;;;;5066618;28;20188;-80
2023/01/01 08:03:03;;;;;;;6.38;4.30;;;13.60;1.00;;;;;;5068602;28;20189;-79
2023/01/01 08:05:29;;;;;;;5.82;3.83;;;13.60;1.00;;;;;;5067524;28;20185;-79
2023/01/01 08:07:54;;;;;;;5.30;4.13;;;13.60;1.00;;;;;;5066350;28;20197;-80
2023/01/01 08:10:20;;;;;;;6.70;4.53;;;13.70;1.00;;;;;;5066277;28;20271;-81
2023/01/01 08:12:46;;;;;;;5.38;4.03;;;13.60;1.00;;;;;;5067863;28;20197;-80
2023/01/01 08:15:13;;;;;;;7.30;4.25;;;13.60;1.00;;;;;;5068406;28;20201;-80
2023/01/01 08:17:39;;;;;;;4.63;3.70;;;13.70;1.00;;;;;;5062055;28;20247;-79
2023/01/01 08:20:06;;;;;;;4.43;3.60;;;13.70;1.00;;;;;;5066132;28;20229;-81
2023/01/01 08:22:31;;;;;;;7.72;4.40;;;13.80;1.00;;;;;;5066211;28;20639;-79
2023/01/01 08:24:57;;;;;;;4.47;3.65;;;13.70;1.00;;;;;;5061065;28;20177;-79
2023/01/01 08:27:22;;;;;;;6.13;3.72;;;13.80;1.00;;;;;;5061088;28;20977;-81
2023/01/01 08:29:48;;;;;;;6.45;3.83;;;13.80;1.00;;;;;;5068605;28;20213;-81
2023/01/01 08:32:14;;;;;;;6.20;3.88;;;13.80;1.00;;;;;;5065078;28;20281;-81
2023/01/01 08:34:39;;;;;;;6.82;4.10;;;13.70;1.00;;;;;;5065739;28;20205;-80
2023/01/01 08:37:06;;;;;;;5.10;3.80;;;13.70;1.00;;;;;;5064656;28;20177;-80
2023/01/01 08:39:31;;;;;;;6.85;4.20;;;13.80;1.00;;;;;;5059684;28;20209;-82
2023/01/01 08:41:57;;;;;;;4.32;3.70;;;13.70;1.00;;;;;;5067839;28;20247;-80
2023/01/01 08:44:23;;;;;;;4.70;3.83;;;13.70;1.00;;;;;;5067050;28;20209;-80
2023/01/01 08:46:51;;;;;;;5.30;3.90;;;13.80;1.00;;;;;;5065567;28;20185;-81
2023/01/01 08:49:16;;;;;;;5.47;3.67;;;13.90;1.00;;;;;;5068600;28;20717;-80
2023/01/01 08:51:42;;;;;;;5.60;3.80;;;13.90;1.00;;;;;;5069387;28;20227;-80
2023/01/01 08:54:07;;;;;;;6.45;4.10;;;13.90;1.00;;;;;;5067697;28;20292;-81
2023/01/01 08:56:33;;;;;;;5.15;3.53;;;13.90;1.00;;;;;;5065663;28;20181;-81
2023/01/01 08:58:59;;;;;;;5.28;3.65;;;13.90;1.00;;;;;;5070590;28;20202;-81
2023/01/01 09:01:26;;;;;;;5.63;3.72;;;14.00;1.00;;;;;;5066471;28;20276;-83
2023/01/01 09:03:52;;;;;;;5.43;3.65;;;13.90;1.00;;;;;;5065536;28;20200;-82
2023/01/01 09:06:18;;;;;;;6.35;3.90;;;13.90;1.00;;;;;;5065987;28;20558;-81
2023/01/01 09:08:43;;;;;;;4.38;3.80;;;13.90;1.00;;;;;;5065638;28;20286;-79
2023/01/01 09:11:24;;;;;;;6.55;4.03;;;13.90;1.00;;;;;;5065135;28;20198;-78
2023/01/01 09:13:50;;;;;;;4.32;3.50;;;13.90;1.00;;;;;;5055070;28;20205;-78
2023/01/01 09:16:16;;;;;;;6.43;3.67;;;13.90;1.00;;;;;;5064782;28;20264;-80
2023/01/01 09:18:42;;;;;;;5.32;3.47;;;13.90;1.00;;;;;;5066420;28;20725;-81
2023/01/01 09:21:07;;;;;;;7.97;3.65;;;13.90;1.00;;;;;;5065154;28;20200;-78
2023/01/01 09:23:33;;;;;;;5.78;3.58;;;14.00;1.00;;;;;;5069119;28;20189;-81
2023/01/01 09:26:07;;;;;;;5.28;3.65;;;13.90;1.00;;;;;;5068932;28;20177;-79
2023/01/01 09:28:33;;;;;;;6.28;3.63;;;13.90;1.00;;;;;;5065918;28;20220;-80
2023/01/01 09:30:59;;;;;;;5.72;3.40;;;13.90;1.00;;;;;;5064873;28;20941;-84
2023/01/01 09:33:25;;;;;;;4.50;3.60;;;14.10;1.00;;;;;;5059891;28;20181;-83
2023/01/01 09:35:51;;;;;;;5.07;3.50;;;13.90;1.00;;;;;;5067678;28;20705;-83
2023/01/01 09:38:16;;;;;;;6.60;3.45;;;13.90;1.00;;;;;;5063614;28;20194;-82
2023/01/01 09:40:58;;;;;;;8.15;4.07;;;13.90;1.00;;;;;;5073195;28;20204;-79
2023/01/01 09:44:01;;;;;;;5.03;3.35;;;13.80;1.00;;;;;;5069566;28;20197;-81
2023/01/01 09:46:27;;;;;;;7.70;3.90;;;13.90;1.00;;;;;;5067539;28;20182;-83
2023/01/01 09:48:58;;;;;;;4.40;3.15;;;14.00;1.00;;;;;;5070131;28;20287;-82
2023/01/01 09:51:25;;;;;;;3.45;2.65;;;14.00;1.00;;;;;;5066767;28;20197;-81
2023/01/01 09:54:04;;;;;;;5.90;3.60;;;14.00;1.00;;;;;;5070546;28;20695;-82
2023/01/01 09:56:31;;;;;;;5.05;3.10;;;13.90;1.00;;;;;;5072513;28;20191;-81
2023/01/01 09:59:00;;;;;;;4.30;3.40;;;14.00;1.00;;;;;;5074524;28;20206;-80
2023/01/01 10:01:54;;;;;;;5.30;3.10;;;14.00;1.00;;;;;;5071855;28;20184;-83
2023/01/01 10:04:37;;;;;;;5.32;3.25;;;13.90;1.00;;;;;;5068496;28;20222;-82
2023/01/01 10:07:27;;;;;;;4.35;3.13;;;14.00;1.00;;;;;;5069922;28;20609;-84
2023/01/01 10:10:31;;;;;;;4.78;2.90;;;14.00;1.00;;;;;;5066692;28;20292;-80
2023/01/01 10:13:20;;;;;;;4.03;3.17;;;13.90;1.00;;;;;;5068485;28;20655;-82
2023/01/01 10:15:56;;;;;;;3.95;2.92;;;13.90;1.00;;;;;;5066921;28;20272;-79
2023/01/01 10:18:26;;;;;;;4.85;3.05;;;14.00;1.00;;;;;;5069046;28;20174;-80
2023/01/01 10:21:02;;;;;;;5.75;3.03;;;14.00;1.00;;;;;;5069179;28;20204;-85
2023/01/01 10:23:33;;;;;;;4.65;3.00;;;14.00;1.00;;;;;;5070283;28;20647;-82
2023/01/01 10:26:07;;;;;;;6.32;3.22;;;14.00;1.00;;;;;;5067964;28;20182;-81
2023/01/01 10:28:45;;;;;;;4.30;2.78;;;14.00;1.00;;;;;;5066439;28;20205;-85
2023/01/01 10:31:17;;;;;;;5.32;2.78;;;14.10;1.00;;;;;;5067411;28;20182;-81
2023/01/01 10:36:18;;;;;;;7.43;3.17;;;14.00;1.00;;;;;;5041734;28;20222;-79
2023/01/01 10:38:44;;;;;;;6.40;3.05;;;14.10;1.00;;;;;;5046814;28;20198;-80
2023/01/01 10:41:12;;;;;;;3.60;2.80;;;14.20;1.00;;;;;;5063281;28;20182;-80
2023/01/01 10:43:38;;;;;;;4.80;2.78;;;14.10;1.00;;;;;;5057585;28;20707;-79
2023/01/01 10:46:04;;;;;;;4.25;2.60;;;14.20;1.00;;;;;;5063037;28;20193;-79
2023/01/01 10:48:32;;;;;;;3.33;2.47;;;14.20;1.00;;;;;;5066043;28;20213;-79
2023/01/01 10:51:04;;;;;;;4.22;2.97;;;14.10;1.00;;;;;;5065622;28;20961;-78
2023/01/01 10:53:36;;;;;;;3.65;2.42;;;14.10;1.00;;;;;;5064313;28;20200;-79
2023/01/01 10:56:14;;;;;;;3.47;2.40;;;14.10;1.00;;;;;;5065455;28;20276;-79
2023/01/01 10:58:47;;;;;;;3.78;2.30;;;14.10;1.00;;;;;;5067108;28;20579;-78
2023/01/01 11:01:20;;;;;;;2.35;2.08;;;14.20;1.00;;;;;;5067364;28;20235;-78
2023/01/01 11:04:01;;;;;;;6.38;2.97;;;14.20;1.00;;;;;;5066107;28;20186;-81
2023/01/01 11:06:33;;;;;;;4.38;2.20;;;14.30;1.00;;;;;;5064177;28;20174;-80
2023/01/01 11:09:04;;;;;;;5.45;2.75;;;14.30;1.00;;;;;;5064307;28;20248;-80
2023/01/01 11:11:46;;;;;;;4.03;2.65;;;14.20;1.00;;;;;;5065506;28;20189;-81
2023/01/01 11:14:27;;;;;;;6.20;2.60;;;14.20;1.00;;;;;;5065774;28;20205;-80
2023/01/01 11:16:54;;;;;;;4.28;2.38;;;14.20;1.00;;;;;;5061936;28;20185;-81
2023/01/01 11:19:26;;;;;;;4.57;2.63;;;14.20;1.00;;;;;;5063920;28;20206;-80
2023/01/01 11:21:52;;;;;;;4.38;1.98;;;14.20;1.00;;;;;;5065339;28;20221;-78
2023/01/01 11:24:24;;;;;;;6.35;2.70;;;14.20;1.00;;;;;;5064246;28;20190;-81
2023/01/01 11:26:51;;;;;;;4.13;2.25;;;14.20;1.00;;;;;;5062506;28;20194;-79
2023/01/01 11:29:29;;;;;;;4.70;2.85;;;14.30;1.00;;;;;;5067252;28;20201;-79
2023/01/01 11:31:56;;;;;;;3.60;2.45;;;14.30;1.00;;;;;;5066512;28;20655;-81
2023/01/01 11:34:25;;;;;;;6.32;2.47;;;14.30;1.00;;;;;;5064132;28;21194;-78
2023/01/01 11:36:51;;;;;;;4.15;2.38;;;14.30;1.00;;;;;;5063268;28;20209;-79
2023/01/01 11:39:26;;;;;;;4.78;2.17;;;14.30;1.00;;;;;;5067025;28;20244;-81
2023/01/01 11:41:56;;;;;;;4.45;2.67;;;14.30;1.00;;;;;;5065380;28;20174;-79
2023/01/01 11:44:39;;;;;;;5.60;3.17;;;14.30;1.00;;;;;;5065039;28;20193;-82
2023/01/01 11:47:06;;;;;;;6.57;2.50;;;14.30;1.00;;;;;;5079136;28;20187;-82
2023/01/01 11:49:32;;;;;;;3.22;2.38;;;14.30;1.00;;;;;;5061507;28;20611;-81
2023/01/01 11:51:58;;;;;;;2.42;2.13;;;14.30;1.00;;;;;;5059623;28;20460;-81
2023/01/01 11:54:31;;;;;;;5.57;2.10;;;14.20;1.00;;;;;;5060936;28;20201;-81
2023/01/01 11:57:05;;;;;;;4.82;2.10;;;14.20;1.00;;;;;;5061581;28;20190;-80
2023/01/01 11:59:42;;;;;;;4.47;2.22;;;14.20;1.00;;;;;;5062829;28;20216;-80
2023/01/01 12:02:14;;;;;;;3.50;2.05;;;14.10;1.00;;;;;;5063662;28;20659;-79
2023/01/01 12:05:20;;;;;;;5.15;2.58;;;14.10;1.00;;;;;;5063776;28;20192;-80
2023/01/01 12:07:46;;;;;;;6.80;2.80;;;14.00;1.00;;;;;;5051329;28;20582;-81
2023/01/01 12:10:30;;;;;;;3.65;2.03;;;13.90;1.00;;;;;;5063857;28;20201;-81
2023/01/01 12:13:24;;;;;;;3.00;1.83;;;13.70;1.00;;;;;;5081312;28;20192;-80
2023/01/01 12:16:01;;;;;;;4.20;1.75;;;13.40;1.00;;;;;;5066075;28;20220;-80
2023/01/01 12:18:47;;;;;;;5.55;2.28;;;13.30;1.00;;;;;;5065981;28;20181;-81
2023/01/01 12:21:12;;;;;;;6.07;3.45;;;13.30;1.00;;;;;;5065294;28;20181;-81
2023/01/01 12:23:39;;;;;;;4.72;2.40;;;13.20;1.00;;;;;;5063389;28;20189;-81
2023/01/01 12:26:07;;;;;;;4.35;2.53;;;13.20;1.00;;;;;;5063329;28;21131;-81
2023/01/01 12:29:03;;;;;;;5.57;3.47;;;13.20;1.00;;;;;;5064963;28;20707;-80
2023/01/01 12:32:04;;;;;;;10.60;6.30;;;13.10;1.00;;;;;;5067575;28;20186;-81
2023/01/01 12:34:42;;;;;;;7.38;5.30;;;13.20;1.00;;;;;;5065257;28;20578;-80
2023/01/01 12:37:45;;;;;;;5.00;3.33;;;13.20;1.00;;;;;;5065538;28;20252;-80
2023/01/01 12:40:33;;;;;;;4.95;2.97;;;13.30;1.00;;;;;;5040265;28;20591;-81
2023/01/01 12:43:11;;;;;;;4.47;2.30;;;13.40;1.00;;;;;;5063630;28;20186;-79
2023/01/01 12:45:36;;;;;;;2.30;1.60;;;13.40;1.00;;;;;;5061881;28;20181;-80
2023/01/01 12:48:28;;;;;;;4.30;1.90;;;13.40;1.00;;;;;;5062239;28;20189;-80
2023/01/01 12:51:14;;;;;;;2.95;1.77;;;13.30;1.00;;;;;;5061596;28;20190;-80
2023/01/01 12:53:58;;;;;;;6.25;2.70;;;13.20;1.00;;;;;;5078200;28;20280;-81
2023/01/01 12:56:42;;;;;;;3.05;1.90;;;13.10;1.00;;;;;;5062401;28;20235;-80
2023/01/01 12:59:23;;;;;;;4.68;2.40;;;13.10;1.00;;;;;;5063125;28;20330;-80
2023/01/01 13:01:54;;;;;;;4.45;2.67;;;13.10;1.00;;;;;;5065370;28;20178;-80
2023/01/01 13:04:21;;;;;;;32.90;19.75;;;12.90;1.00;;;;;;5068566;28;20638;-81
2023/01/01 13:07:03;;;;;;;38.75;24.80;;;12.90;1.00;;;;;;5069063;28;20185;-79
2023/01/01 13:09:38;;;;;;;23.45;14.48;;;12.80;1.00;;;;;;5082873;28;20939;-81
2023/01/01 13:12:14;;;;;;;33.20;22.00;;;12.70;1.00;;;;;;5067560;28;20181;-80
2023/01/01 13:14:42;;;;;;;36.42;27.33;;;12.70;1.00;;;;;;5066525;28;20701;-80
2023/01/01 13:17:25;;;;;;;8.15;5.88;;;12.70;1.00;;;;;;5067190;28;20170;-81
2023/01/01 13:20:21;;;;;;;4.43;2.92;;;12.70;1.00;;;;;;5068563;28;20202;-81
2023/01/01 13:22:47;;;;;;;6.15;2.58;;;12.60;1.00;;;;;;5060577;28;20217;-81
2023/01/01 13:25:14;;;;;;;3.13;2.30;;;12.70;1.00;;;;;;5068598;28;20193;-81